createdAt,value
2018-07-28T00:00:23.842Z,0.00
2018-07-28T00:01:23.798Z,0.00
2018-07-28T00:02:23.751Z,0.00
2018-07-28T00:03:23.706Z,0.00
2018-07-28T00:04:23.644Z,0.00
2018-07-28T00:05:23.629Z,0.00
2018-07-28T00:06:23.581Z,0.00
2018-07-28T00:07:23.529Z,0.00
2018-07-28T00:08:23.462Z,0.00
2018-07-28T00:09:23.420Z,0.00
2018-07-28T00:10:23.402Z,0.00
2018-07-28T00:11:23.357Z,0.00
2018-07-28T00:12:23.308Z,0.00
2018-07-28T00:13:23.257Z,0.00
2018-07-28T00:14:23.234Z,0.00
2018-07-28T00:15:23.175Z,0.00
2018-07-28T00:16:23.097Z,0.00
2018-07-28T00:17:23.071Z,0.00
2018-07-28T00:18:23.036Z,0.00
2018-07-28T00:19:22.981Z,0.00
2018-07-28T00:20:22.946Z,0.00
2018-07-28T00:21:22.882Z,0.00
2018-07-28T00:22:22.831Z,0.00
2018-07-28T00:23:22.813Z,0.00
2018-07-28T00:24:22.764Z,0.00
2018-07-28T00:25:22.692Z,0.00
2018-07-28T00:26:22.669Z,0.00
2018-07-28T00:27:22.636Z,0.00
2018-07-28T00:28:22.578Z,0.00
2018-07-28T00:29:22.535Z,0.00
2018-07-28T00:30:22.496Z,0.00
2018-07-28T00:31:22.448Z,0.00
2018-07-28T00:32:22.385Z,0.00
2018-07-28T00:33:22.358Z,0.00
2018-07-28T00:34:22.305Z,0.00
2018-07-28T00:35:22.254Z,0.00
2018-07-28T00:36:22.223Z,0.00
2018-07-28T00:37:22.173Z,0.00
2018-07-28T00:38:22.124Z,0.00
2018-07-28T00:39:22.087Z,0.00
2018-07-28T00:40:22.043Z,0.00
2018-07-28T00:41:21.996Z,0.00
2018-07-28T00:42:21.949Z,0.00
2018-07-28T00:43:21.893Z,0.00
2018-07-28T00:44:21.852Z,0.00
2018-07-28T00:45:21.812Z,0.00
2018-07-28T00:46:21.769Z,0.00
2018-07-28T00:47:21.716Z,0.00
2018-07-28T00:48:21.670Z,0.00
2018-07-28T00:49:21.632Z,0.00
2018-07-28T00:50:21.583Z,0.00
2018-07-28T00:51:21.544Z,0.00
2018-07-28T00:52:21.485Z,0.00
2018-07-28T00:53:21.438Z,0.00
2018-07-28T00:54:21.374Z,0.00
2018-07-28T00:55:21.347Z,0.00
2018-07-28T00:56:21.316Z,0.00
2018-07-28T00:57:21.261Z,0.00
2018-07-28T00:58:21.220Z,0.00
2018-07-28T00:59:21.174Z,0.00
2018-07-28T01:00:21.142Z,0.00
2018-07-28T01:01:21.076Z,0.00
2018-07-28T01:02:21.041Z,0.00
2018-07-28T01:03:20.995Z,0.00
2018-07-28T01:04:20.939Z,0.00
2018-07-28T01:05:20.900Z,0.00
2018-07-28T01:06:20.854Z,0.00
2018-07-28T01:07:20.803Z,0.00
2018-07-28T01:08:20.764Z,0.00
2018-07-28T01:09:20.727Z,0.00
2018-07-28T01:10:20.674Z,0.00
2018-07-28T01:11:20.620Z,0.00
2018-07-28T01:12:20.584Z,0.00
2018-07-28T01:13:20.538Z,0.00
2018-07-28T01:14:20.494Z,0.00
2018-07-28T01:15:20.426Z,0.00
2018-07-28T01:16:20.402Z,0.00
2018-07-28T01:17:20.359Z,0.00
2018-07-28T01:18:20.312Z,0.00
2018-07-28T01:19:20.258Z,0.00
2018-07-28T01:20:20.214Z,0.00
2018-07-28T01:21:20.167Z,0.00
2018-07-28T01:22:20.120Z,0.00
2018-07-28T01:23:20.082Z,0.00
2018-07-28T01:24:20.036Z,0.00
2018-07-28T01:25:19.990Z,0.00
2018-07-28T01:26:19.948Z,0.00
2018-07-28T01:27:19.898Z,0.00
2018-07-28T01:28:19.848Z,0.00
2018-07-28T01:29:19.817Z,0.00
2018-07-28T01:30:19.757Z,0.00
2018-07-28T01:31:19.706Z,0.00
2018-07-28T01:32:19.666Z,0.00
2018-07-28T01:33:19.625Z,0.00
2018-07-28T01:34:19.589Z,0.00
2018-07-28T01:35:19.530Z,0.00
2018-07-28T01:36:19.494Z,0.00
2018-07-28T01:37:19.444Z,0.00
2018-07-28T01:38:19.417Z,0.00
2018-07-28T01:39:19.358Z,0.00
2018-07-28T01:40:19.311Z,0.00
2018-07-28T01:41:19.263Z,0.00
2018-07-28T01:42:19.222Z,0.00
2018-07-28T01:43:19.160Z,0.00
2018-07-28T01:44:19.123Z,0.00
2018-07-28T01:45:19.084Z,0.00
2018-07-28T01:46:19.049Z,0.00
2018-07-28T01:47:18.972Z,0.00
2018-07-28T01:48:18.964Z,0.00
2018-07-28T01:49:18.947Z,0.00
2018-07-28T01:50:18.854Z,0.00
2018-07-28T01:51:18.813Z,0.00
2018-07-28T01:52:18.769Z,0.00
2018-07-28T01:53:18.724Z,0.00
2018-07-28T01:54:18.670Z,0.00
2018-07-28T01:55:18.643Z,0.00
2018-07-28T01:56:18.577Z,0.00
2018-07-28T01:57:18.542Z,0.00
2018-07-28T01:58:18.496Z,0.00
2018-07-28T01:59:18.447Z,0.00
2018-07-28T02:00:18.386Z,0.00
2018-07-28T02:01:18.354Z,0.00
2018-07-28T02:02:18.309Z,0.00
2018-07-28T02:03:18.261Z,0.00
2018-07-28T02:04:18.210Z,0.00
2018-07-28T02:05:18.189Z,0.00
2018-07-28T02:06:18.127Z,0.00
2018-07-28T02:07:18.079Z,0.00
2018-07-28T02:08:18.038Z,0.00
2018-07-28T02:09:17.981Z,0.00
2018-07-28T02:10:17.951Z,0.00
2018-07-28T02:11:17.892Z,0.00
2018-07-28T02:12:17.852Z,0.00
2018-07-28T02:13:17.810Z,0.00
2018-07-28T02:14:17.766Z,0.00
2018-07-28T02:15:17.730Z,0.00
2018-07-28T02:16:17.664Z,0.00
2018-07-28T02:17:17.621Z,0.00
2018-07-28T02:18:17.595Z,0.00
2018-07-28T02:19:17.534Z,0.00
2018-07-28T02:20:17.489Z,0.00
2018-07-28T02:21:17.447Z,0.00
2018-07-28T02:22:17.399Z,0.00
2018-07-28T02:23:17.354Z,0.00
2018-07-28T02:24:17.306Z,0.00
2018-07-28T02:25:17.253Z,0.00
2018-07-28T02:26:17.218Z,0.00
2018-07-28T02:27:17.173Z,0.00
2018-07-28T02:28:17.120Z,0.00
2018-07-28T02:29:17.078Z,0.00
2018-07-28T02:30:17.025Z,0.00
2018-07-28T02:31:16.989Z,0.00
2018-07-28T02:32:16.937Z,0.00
2018-07-28T02:33:16.887Z,0.00
2018-07-28T02:34:16.847Z,0.00
2018-07-28T02:35:16.815Z,0.00
2018-07-28T02:36:16.740Z,0.00
2018-07-28T02:37:16.726Z,0.00
2018-07-28T02:38:16.669Z,0.00
2018-07-28T02:39:16.620Z,0.00
2018-07-28T02:40:16.577Z,0.00
2018-07-28T02:41:16.514Z,0.00
2018-07-28T02:42:16.486Z,0.00
2018-07-28T02:43:16.432Z,0.00
2018-07-28T02:44:16.409Z,0.00
2018-07-28T02:45:16.346Z,0.00
2018-07-28T02:46:16.292Z,0.00
2018-07-28T02:47:16.244Z,0.00
2018-07-28T02:48:16.210Z,0.00
2018-07-28T02:49:16.159Z,0.00
2018-07-28T02:50:16.110Z,0.00
2018-07-28T02:51:16.070Z,0.00
2018-07-28T02:52:16.029Z,0.00
2018-07-28T02:53:15.984Z,0.00
2018-07-28T02:54:15.944Z,0.00
2018-07-28T02:55:15.885Z,0.00
2018-07-28T02:56:15.847Z,0.00
2018-07-28T02:57:15.794Z,0.00
2018-07-28T02:58:15.737Z,0.00
2018-07-28T02:59:15.706Z,0.00
2018-07-28T03:00:15.679Z,0.00
2018-07-28T03:01:15.615Z,0.00
2018-07-28T03:02:15.575Z,0.00
2018-07-28T03:03:15.513Z,0.00
2018-07-28T03:04:15.481Z,0.00
2018-07-28T03:05:15.425Z,0.00
2018-07-28T03:06:15.397Z,0.00
2018-07-28T03:07:15.344Z,0.00
2018-07-28T03:08:15.295Z,0.00
2018-07-28T03:09:15.247Z,0.00
2018-07-28T03:10:15.199Z,0.00
2018-07-28T03:11:15.153Z,0.00
2018-07-28T03:12:15.104Z,0.00
2018-07-28T03:13:15.056Z,0.00
2018-07-28T03:14:15.021Z,0.00
2018-07-28T03:15:14.981Z,0.00
2018-07-28T03:16:14.942Z,0.00
2018-07-28T03:17:14.873Z,0.00
2018-07-28T03:18:14.837Z,0.00
2018-07-28T03:19:14.780Z,0.00
2018-07-28T03:20:14.739Z,0.00
2018-07-28T03:21:14.701Z,0.00
2018-07-28T03:22:14.657Z,0.00
2018-07-28T03:23:14.599Z,0.00
2018-07-28T03:24:14.559Z,0.00
2018-07-28T03:25:14.516Z,0.00
2018-07-28T03:26:14.448Z,0.00
2018-07-28T03:27:14.439Z,0.00
2018-07-28T03:28:14.382Z,0.00
2018-07-28T03:29:14.307Z,0.00
2018-07-28T03:30:14.275Z,0.00
2018-07-28T03:31:14.239Z,0.00
2018-07-28T03:32:14.189Z,0.00
2018-07-28T03:33:14.144Z,0.00
2018-07-28T03:34:14.100Z,0.00
2018-07-28T03:35:14.045Z,0.00
2018-07-28T03:36:14.000Z,0.00
2018-07-28T03:37:13.954Z,0.00
2018-07-28T03:38:13.917Z,0.00
2018-07-28T03:39:13.846Z,0.00
2018-07-28T03:40:13.829Z,0.00
2018-07-28T03:41:13.779Z,0.00
2018-07-28T03:42:13.727Z,0.00
2018-07-28T03:43:13.704Z,0.00
2018-07-28T03:44:13.633Z,0.00
2018-07-28T03:45:13.599Z,0.00
2018-07-28T03:46:13.553Z,0.00
2018-07-28T03:47:13.512Z,0.00
2018-07-28T03:48:13.441Z,0.00
2018-07-28T03:49:13.423Z,0.00
2018-07-28T03:50:13.363Z,0.00
2018-07-28T03:51:13.320Z,0.00
2018-07-28T03:52:13.268Z,0.00
2018-07-28T03:53:13.233Z,0.00
2018-07-28T03:54:13.200Z,0.00
2018-07-28T03:55:13.129Z,0.00
2018-07-28T03:56:13.093Z,0.00
2018-07-28T03:57:13.039Z,0.00
2018-07-28T03:58:13.001Z,0.00
2018-07-28T03:59:12.959Z,0.00
2018-07-28T04:00:12.946Z,0.00
2018-07-28T04:01:12.862Z,0.00
2018-07-28T04:02:12.807Z,0.00
2018-07-28T04:03:12.762Z,0.00
2018-07-28T04:04:12.727Z,0.00
2018-07-28T04:05:12.648Z,0.00
2018-07-28T04:06:12.631Z,0.00
2018-07-28T04:07:12.582Z,0.00
2018-07-28T04:08:12.539Z,0.00
2018-07-28T04:09:12.481Z,0.00
2018-07-28T04:10:12.451Z,0.00
2018-07-28T04:11:12.404Z,0.00
2018-07-28T04:12:12.355Z,0.00
2018-07-28T04:13:12.310Z,0.00
2018-07-28T04:14:12.259Z,0.00
2018-07-28T04:15:12.218Z,0.00
2018-07-28T04:16:12.171Z,0.00
2018-07-28T04:17:12.097Z,0.00
2018-07-28T04:18:12.076Z,0.00
2018-07-28T04:19:12.028Z,0.00
2018-07-28T04:20:11.982Z,0.00
2018-07-28T04:21:11.936Z,0.00
2018-07-28T04:22:11.887Z,0.00
2018-07-28T04:23:11.840Z,0.00
2018-07-28T04:24:11.797Z,0.00
2018-07-28T04:25:11.736Z,0.00
2018-07-28T04:26:11.726Z,0.00
2018-07-28T04:27:11.667Z,0.00
2018-07-28T04:28:11.615Z,0.00
2018-07-28T04:29:11.577Z,0.00
2018-07-28T04:30:11.526Z,0.00
2018-07-28T04:31:11.484Z,0.00
2018-07-28T04:32:11.425Z,0.00
2018-07-28T04:33:11.384Z,0.00
2018-07-28T04:34:11.339Z,0.00
2018-07-28T04:35:11.295Z,0.00
2018-07-28T04:36:11.248Z,0.00
2018-07-28T04:37:11.258Z,0.00
2018-07-28T04:38:11.154Z,0.00
2018-07-28T04:39:11.112Z,0.00
2018-07-28T04:40:11.039Z,0.00
2018-07-28T04:41:11.021Z,0.00
2018-07-28T04:42:10.953Z,0.00
2018-07-28T04:43:10.922Z,0.00
2018-07-28T04:44:10.871Z,0.00
2018-07-28T04:45:10.841Z,0.00
2018-07-28T04:46:10.775Z,0.00
2018-07-28T04:47:10.741Z,0.00
2018-07-28T04:48:10.694Z,0.00
2018-07-28T04:49:10.650Z,0.00
2018-07-28T04:50:10.608Z,0.00
2018-07-28T04:51:10.598Z,0.00
2018-07-28T04:52:10.516Z,0.00
2018-07-28T04:53:10.470Z,0.00
2018-07-28T04:54:10.410Z,0.00
2018-07-28T04:55:10.360Z,0.00
2018-07-28T04:56:10.324Z,0.00
2018-07-28T04:57:10.273Z,0.00
2018-07-28T04:58:10.231Z,0.00
2018-07-28T04:59:10.196Z,0.00
2018-07-28T05:00:10.140Z,0.00
2018-07-28T05:01:10.097Z,0.00
2018-07-28T05:02:10.053Z,0.00
2018-07-28T05:03:10.011Z,0.00
2018-07-28T05:04:09.955Z,0.00
2018-07-28T05:05:09.929Z,0.00
2018-07-28T05:06:09.848Z,0.00
2018-07-28T05:07:09.845Z,0.00
2018-07-28T05:08:09.766Z,0.00
2018-07-28T05:09:09.719Z,0.00
2018-07-28T05:10:09.675Z,0.00
2018-07-28T05:11:09.636Z,0.00
2018-07-28T05:12:09.585Z,0.00
2018-07-28T05:13:09.558Z,0.00
2018-07-28T05:14:09.497Z,0.00
2018-07-28T05:15:09.466Z,0.00
2018-07-28T05:16:09.413Z,0.00
2018-07-28T05:17:09.370Z,0.00
2018-07-28T05:18:09.323Z,0.00
2018-07-28T05:19:09.249Z,0.00
2018-07-28T05:20:09.213Z,0.00
2018-07-28T05:21:09.167Z,0.00
2018-07-28T05:22:09.129Z,0.00
2018-07-28T05:23:09.086Z,0.00
2018-07-28T05:24:09.028Z,0.00
2018-07-28T05:25:08.981Z,0.00
2018-07-28T05:26:08.935Z,0.00
2018-07-28T05:27:08.904Z,0.00
2018-07-28T05:28:08.844Z,0.00
2018-07-28T05:29:08.795Z,0.00
2018-07-28T05:30:08.765Z,0.00
2018-07-28T05:31:08.716Z,0.00
2018-07-28T05:32:08.721Z,0.00
2018-07-28T05:33:08.609Z,0.00
2018-07-28T05:34:08.574Z,0.00
2018-07-28T05:35:08.524Z,0.00
2018-07-28T05:36:08.476Z,0.00
2018-07-28T05:37:08.479Z,0.00
2018-07-28T05:38:08.398Z,0.00
2018-07-28T05:39:08.372Z,0.00
2018-07-28T05:40:08.296Z,0.00
2018-07-28T05:41:08.246Z,0.00
2018-07-28T05:42:08.201Z,0.00
2018-07-28T05:43:08.160Z,0.00
2018-07-28T05:44:08.110Z,0.00
2018-07-28T05:45:08.065Z,0.00
2018-07-28T05:46:08.021Z,0.00
2018-07-28T05:47:07.971Z,0.00
2018-07-28T05:48:07.917Z,0.00
2018-07-28T05:49:07.870Z,0.00
2018-07-28T05:50:07.941Z,0.00
2018-07-28T05:51:07.792Z,0.00
2018-07-28T05:52:07.731Z,0.00
2018-07-28T05:53:07.688Z,0.00
2018-07-28T05:54:07.662Z,0.00
2018-07-28T05:55:07.605Z,0.00
2018-07-28T05:56:07.563Z,0.00
2018-07-28T05:57:07.512Z,0.00
2018-07-28T05:58:07.457Z,0.00
2018-07-28T05:59:07.398Z,0.00
2018-07-28T06:00:07.361Z,0.00
2018-07-28T06:01:07.305Z,0.00
2018-07-28T06:02:07.318Z,0.00
2018-07-28T06:03:07.241Z,0.00
2018-07-28T06:04:07.185Z,0.00
2018-07-28T06:05:07.142Z,0.00
2018-07-28T06:06:07.077Z,0.00
2018-07-28T06:07:07.049Z,0.00
2018-07-28T06:08:06.991Z,0.00
2018-07-28T06:09:06.950Z,0.00
2018-07-28T06:10:06.897Z,0.00
2018-07-28T06:11:06.876Z,0.00
2018-07-28T06:12:06.808Z,0.00
2018-07-28T06:13:06.775Z,0.00
2018-07-28T06:14:06.742Z,0.00
2018-07-28T06:15:06.669Z,0.00
2018-07-28T06:16:06.602Z,0.00
2018-07-28T06:17:06.600Z,0.00
2018-07-28T06:18:06.543Z,0.00
2018-07-28T06:19:06.491Z,0.00
2018-07-28T06:20:06.448Z,0.00
2018-07-28T06:21:06.398Z,0.00
2018-07-28T06:22:06.360Z,0.00
2018-07-28T06:23:06.303Z,0.00
2018-07-28T06:24:06.273Z,0.00
2018-07-28T06:25:06.207Z,0.00
2018-07-28T06:26:06.189Z,0.00
2018-07-28T06:27:06.117Z,0.00
2018-07-28T06:28:06.065Z,0.00
2018-07-28T06:29:06.024Z,0.00
2018-07-28T06:30:05.991Z,0.00
2018-07-28T06:31:05.930Z,0.00
2018-07-28T06:32:05.886Z,0.00
2018-07-28T06:33:05.846Z,0.00
2018-07-28T06:34:05.798Z,0.00
2018-07-28T06:35:05.758Z,0.00
2018-07-28T06:36:05.699Z,0.00
2018-07-28T06:37:05.654Z,0.00
2018-07-28T06:38:05.601Z,0.00
2018-07-28T06:39:05.554Z,0.00
2018-07-28T06:40:05.527Z,0.00
2018-07-28T06:41:05.466Z,0.00
2018-07-28T06:42:05.420Z,0.00
2018-07-28T06:43:05.377Z,0.00
2018-07-28T06:44:05.325Z,0.00
2018-07-28T06:45:05.283Z,0.00
2018-07-28T06:46:05.229Z,0.00
2018-07-28T06:47:05.184Z,0.00
2018-07-28T06:48:05.130Z,0.00
2018-07-28T06:49:05.089Z,0.00
2018-07-28T06:50:05.033Z,0.00
2018-07-28T06:51:04.986Z,0.00
2018-07-28T06:52:04.959Z,0.00
2018-07-28T06:53:04.908Z,0.00
2018-07-28T06:54:04.857Z,0.00
2018-07-28T06:55:04.824Z,0.00
2018-07-28T06:56:04.771Z,0.00
2018-07-28T06:57:04.718Z,0.00
2018-07-28T06:58:04.678Z,0.00
2018-07-28T06:59:04.635Z,0.00
2018-07-28T07:00:04.591Z,0.00
2018-07-28T07:01:04.532Z,0.00
2018-07-28T07:02:04.487Z,0.00
2018-07-28T07:03:04.433Z,0.00
2018-07-28T07:04:04.393Z,0.00
2018-07-28T07:05:04.360Z,0.00
2018-07-28T07:06:04.295Z,0.00
2018-07-28T07:07:04.253Z,0.00
2018-07-28T07:08:04.219Z,0.00
2018-07-28T07:09:04.169Z,0.00
2018-07-28T07:10:04.128Z,0.00
2018-07-28T07:11:04.068Z,0.00
2018-07-28T07:12:04.029Z,0.00
2018-07-28T07:13:03.962Z,0.00
2018-07-28T07:14:03.939Z,0.00
2018-07-28T07:15:03.898Z,0.00
2018-07-28T07:16:03.836Z,0.00
2018-07-28T07:17:03.790Z,0.00
2018-07-28T07:18:03.742Z,0.00
2018-07-28T07:19:03.715Z,0.00
2018-07-28T07:20:03.662Z,0.00
2018-07-28T07:21:03.611Z,0.00
2018-07-28T07:22:03.570Z,0.00
2018-07-28T07:23:03.509Z,0.00
2018-07-28T07:24:03.467Z,0.00
2018-07-28T07:25:03.427Z,0.00
2018-07-28T07:26:03.388Z,0.00
2018-07-28T07:27:03.335Z,0.00
2018-07-28T07:28:03.290Z,0.00
2018-07-28T07:29:03.235Z,0.00
2018-07-28T07:30:03.197Z,0.00
2018-07-28T07:31:03.146Z,0.00
2018-07-28T07:32:03.103Z,0.00
2018-07-28T07:33:03.046Z,0.00
2018-07-28T07:34:03.006Z,0.00
2018-07-28T07:35:02.945Z,0.00
2018-07-28T07:36:02.966Z,0.00
2018-07-28T07:37:02.868Z,0.00
2018-07-28T07:38:02.862Z,0.00
2018-07-28T07:39:02.766Z,0.00
2018-07-28T07:40:02.719Z,0.00
2018-07-28T07:41:02.679Z,0.00
2018-07-28T07:42:02.635Z,0.00
2018-07-28T07:43:02.595Z,0.00
2018-07-28T07:44:02.541Z,0.00
2018-07-28T07:45:02.491Z,0.00
2018-07-28T07:46:02.439Z,0.00
2018-07-28T07:47:02.404Z,0.00
2018-07-28T07:48:02.338Z,0.00
2018-07-28T07:49:02.300Z,0.00
2018-07-28T07:50:02.254Z,0.00
2018-07-28T07:51:02.209Z,0.00
2018-07-28T07:52:02.164Z,0.00
2018-07-28T07:53:02.121Z,0.00
2018-07-28T07:54:02.201Z,0.00
2018-07-28T07:55:02.037Z,0.00
2018-07-28T07:56:01.985Z,0.00
2018-07-28T07:57:01.937Z,0.00
2018-07-28T07:58:01.890Z,0.00
2018-07-28T07:59:01.839Z,0.00
2018-07-28T08:00:01.794Z,0.00
2018-07-28T08:01:01.741Z,0.00
2018-07-28T08:02:01.705Z,0.00
2018-07-28T08:03:01.662Z,0.00
2018-07-28T08:04:01.582Z,0.00
2018-07-28T08:05:01.572Z,0.00
2018-07-28T08:06:01.508Z,0.00
2018-07-28T08:07:01.471Z,0.00
2018-07-28T08:08:01.427Z,0.00
2018-07-28T08:09:01.378Z,0.00
2018-07-28T08:10:01.329Z,0.00
2018-07-28T08:11:01.283Z,0.00
2018-07-28T08:12:01.224Z,0.00
2018-07-28T08:13:01.190Z,0.00
2018-07-28T08:14:01.135Z,0.00
2018-07-28T08:15:01.097Z,0.00
2018-07-28T08:16:01.042Z,0.00
2018-07-28T08:17:00.980Z,0.00
2018-07-28T08:18:00.957Z,0.00
2018-07-28T08:19:00.910Z,0.00
2018-07-28T08:20:00.879Z,0.00
2018-07-28T08:21:00.860Z,0.00
2018-07-28T08:22:00.768Z,0.00
2018-07-28T08:23:00.740Z,0.00
2018-07-28T08:24:00.656Z,0.00
2018-07-28T08:25:00.603Z,0.00
2018-07-28T08:26:00.584Z,0.00
2018-07-28T08:27:00.554Z,0.00
2018-07-28T08:28:00.492Z,0.00
2018-07-28T08:29:00.459Z,0.00
2018-07-28T08:30:00.393Z,0.00
2018-07-28T08:31:00.355Z,0.00
2018-07-28T08:32:00.299Z,0.00
2018-07-28T08:33:00.248Z,0.00
2018-07-28T08:34:00.203Z,0.00
2018-07-28T08:35:00.147Z,0.00
2018-07-28T08:36:00.103Z,0.00
2018-07-28T08:37:00.068Z,0.00
2018-07-28T08:38:00.021Z,0.00
2018-07-28T08:38:59.980Z,0.00
2018-07-28T08:40:00.040Z,0.00
2018-07-28T08:40:59.896Z,0.00
2018-07-28T08:41:59.836Z,0.00
2018-07-28T08:42:59.781Z,0.00
2018-07-28T08:43:59.747Z,0.00
2018-07-28T08:44:59.694Z,0.00
2018-07-28T08:45:59.657Z,0.00
2018-07-28T08:46:59.601Z,0.00
2018-07-28T08:47:59.572Z,0.00
2018-07-28T08:48:59.565Z,0.00
2018-07-28T08:49:59.454Z,0.00
2018-07-28T08:50:59.427Z,0.00
2018-07-28T08:51:59.363Z,0.00
2018-07-28T08:52:59.334Z,0.00
2018-07-28T08:53:59.276Z,0.00
2018-07-28T08:54:59.234Z,0.00
2018-07-28T08:55:59.183Z,0.00
2018-07-28T08:56:59.144Z,0.00
2018-07-28T08:57:59.081Z,0.00
2018-07-28T08:58:59.038Z,0.00
2018-07-28T08:59:58.989Z,0.00
2018-07-28T09:00:58.955Z,0.00
2018-07-28T09:01:58.903Z,0.00
2018-07-28T09:02:58.847Z,0.00
2018-07-28T09:03:58.805Z,0.00
2018-07-28T09:04:58.762Z,0.00
2018-07-28T09:05:58.759Z,0.00
2018-07-28T09:06:58.660Z,0.00
2018-07-28T09:07:58.622Z,0.00
2018-07-28T09:08:58.550Z,0.00
2018-07-28T09:09:58.528Z,0.00
2018-07-28T09:10:58.480Z,0.00
2018-07-28T09:11:58.426Z,0.00
2018-07-28T09:12:58.385Z,0.00
2018-07-28T09:13:58.352Z,0.00
2018-07-28T09:14:58.293Z,0.00
2018-07-28T09:15:58.243Z,0.00
2018-07-28T09:16:58.184Z,0.00
2018-07-28T09:17:58.163Z,0.00
2018-07-28T09:18:58.107Z,0.00
2018-07-28T09:19:58.052Z,4.00
2018-07-28T09:20:58.029Z,0.00
2018-07-28T09:21:57.965Z,4.00
2018-07-28T09:22:57.923Z,0.00
2018-07-28T09:23:57.859Z,4.00
2018-07-28T09:24:57.817Z,4.00
2018-07-28T09:25:57.762Z,4.00
2018-07-28T09:26:57.737Z,8.00
2018-07-28T09:27:57.680Z,4.00
2018-07-28T09:28:57.639Z,8.00
2018-07-28T09:29:57.596Z,12.00
2018-07-28T09:30:57.544Z,12.00
2018-07-28T09:31:57.494Z,20.00
2018-07-28T09:32:57.455Z,20.00
2018-07-28T09:33:57.410Z,28.00
2018-07-28T09:34:57.362Z,28.00
2018-07-28T09:35:57.312Z,36.00
2018-07-28T09:36:57.298Z,40.00
2018-07-28T09:37:57.233Z,48.00
2018-07-28T09:38:57.144Z,60.00
2018-07-28T09:39:57.119Z,68.00
2018-07-28T09:40:57.075Z,80.00
2018-07-28T09:41:57.022Z,96.00
2018-07-28T09:42:57.000Z,112.00
2018-07-28T09:43:56.937Z,128.00
2018-07-28T09:44:56.886Z,148.00
2018-07-28T09:45:56.846Z,180.00
2018-07-28T09:46:56.818Z,208.00
2018-07-28T09:47:56.748Z,236.00
2018-07-28T09:48:56.695Z,272.00
2018-07-28T09:49:56.673Z,312.00
2018-07-28T09:50:56.603Z,344.00
2018-07-28T09:51:56.580Z,380.00
2018-07-28T09:52:56.509Z,424.00
2018-07-28T09:53:56.477Z,472.00
2018-07-28T09:54:56.424Z,520.00
2018-07-28T09:55:56.382Z,568.00
2018-07-28T09:56:56.343Z,616.00
2018-07-28T09:57:56.330Z,668.00
2018-07-28T09:58:56.232Z,720.00
2018-07-28T09:59:56.190Z,780.00
2018-07-28T10:00:56.140Z,836.00
2018-07-28T10:01:56.092Z,892.00
2018-07-28T10:02:56.040Z,952.00
2018-07-28T10:03:56.004Z,1012.00
2018-07-28T10:04:55.963Z,1072.00
2018-07-28T10:05:55.909Z,1148.00
2018-07-28T10:06:55.859Z,1280.00
2018-07-28T10:07:55.806Z,1312.00
2018-07-28T10:08:55.762Z,1300.00
2018-07-28T10:09:55.707Z,1356.00
2018-07-28T10:10:55.665Z,1448.00
2018-07-28T10:11:55.628Z,1572.00
2018-07-28T10:12:55.581Z,1704.00
2018-07-28T10:13:55.535Z,1584.00
2018-07-28T10:14:55.481Z,1716.00
2018-07-28T10:15:55.434Z,2008.00
2018-07-28T10:16:55.394Z,2384.00
2018-07-28T10:17:55.354Z,3020.00
2018-07-28T10:18:55.294Z,2864.00
2018-07-28T10:19:55.248Z,2244.00
2018-07-28T10:20:55.213Z,2108.00
2018-07-28T10:21:55.147Z,2232.00
2018-07-28T10:22:55.162Z,2324.00
2018-07-28T10:23:55.069Z,2332.00
2018-07-28T10:24:55.038Z,2528.00
2018-07-28T10:25:54.975Z,3144.00
2018-07-28T10:26:54.935Z,3844.00
2018-07-28T10:27:54.876Z,3540.00
2018-07-28T10:28:54.835Z,3232.00
2018-07-28T10:29:54.784Z,4324.00
2018-07-28T10:30:54.742Z,4200.00
2018-07-28T10:31:54.708Z,5196.00
2018-07-28T10:32:54.642Z,5236.00
2018-07-28T10:33:54.607Z,9440.00
2018-07-28T10:34:54.555Z,11288.00
2018-07-28T10:35:54.489Z,7864.00
2018-07-28T10:36:54.465Z,8348.00
2018-07-28T10:37:54.417Z,13728.00
2018-07-28T10:38:54.377Z,18368.00
2018-07-28T10:39:54.324Z,21472.00
2018-07-28T10:40:54.287Z,23264.00
2018-07-28T10:41:54.242Z,24160.00
2018-07-28T10:42:54.191Z,24448.00
2018-07-28T10:43:54.154Z,24576.00
2018-07-28T10:44:54.114Z,25472.00
2018-07-28T10:45:54.053Z,26176.00
2018-07-28T10:46:54.023Z,27296.00
2018-07-28T10:47:53.982Z,28320.00
2018-07-28T10:48:53.932Z,28864.00
2018-07-28T10:49:53.897Z,30208.00
2018-07-28T10:50:53.844Z,30784.00
2018-07-28T10:51:53.862Z,30368.00
2018-07-28T10:52:53.771Z,30592.00
2018-07-28T10:53:53.726Z,32512.00
2018-07-28T10:54:53.681Z,33088.00
2018-07-28T10:55:53.628Z,32608.00
2018-07-28T10:56:53.621Z,31392.00
2018-07-28T10:57:53.571Z,31296.00
2018-07-28T10:58:53.523Z,32800.00
2018-07-28T10:59:53.485Z,32768.00
2018-07-28T11:00:53.450Z,34080.00
2018-07-28T11:01:53.415Z,34752.00
2018-07-28T11:02:53.378Z,35232.00
2018-07-28T11:03:53.319Z,35840.00
2018-07-28T11:04:53.294Z,36544.00
2018-07-28T11:05:53.260Z,36096.00
2018-07-28T11:06:53.230Z,35232.00
2018-07-28T11:07:53.194Z,36832.00
2018-07-28T11:08:53.147Z,35744.00
2018-07-28T11:09:53.103Z,35936.00
2018-07-28T11:10:53.086Z,36192.00
2018-07-28T11:11:53.049Z,35904.00
2018-07-28T11:12:53.013Z,35776.00
2018-07-28T11:13:52.975Z,37120.00
2018-07-28T11:14:52.941Z,37440.00
2018-07-28T11:15:52.913Z,37152.00
2018-07-28T11:16:52.852Z,33344.00
2018-07-28T11:17:52.824Z,17184.00
2018-07-28T11:18:52.825Z,7356.00
2018-07-28T11:19:52.755Z,7128.00
2018-07-28T11:20:52.720Z,6980.00
2018-07-28T11:21:52.683Z,6820.00
2018-07-28T11:22:52.626Z,6672.00
2018-07-28T11:23:52.597Z,6640.00
2018-07-28T11:24:52.564Z,6552.00
2018-07-28T11:25:52.541Z,6508.00
2018-07-28T11:26:52.492Z,6352.00
2018-07-28T11:27:52.454Z,6052.00
2018-07-28T11:28:52.404Z,5816.00
2018-07-28T11:29:52.371Z,5636.00
2018-07-28T11:30:52.319Z,5476.00
2018-07-28T11:31:52.305Z,5356.00
2018-07-28T11:32:52.258Z,5264.00
2018-07-28T11:33:52.199Z,5180.00
2018-07-28T11:34:52.156Z,5100.00
2018-07-28T11:35:52.112Z,5004.00
2018-07-28T11:36:52.087Z,4980.00
2018-07-28T11:37:52.079Z,4952.00
2018-07-28T11:38:51.982Z,4940.00
2018-07-28T11:39:51.952Z,4936.00
2018-07-28T11:40:51.887Z,4892.00
2018-07-28T11:41:51.855Z,4880.00
2018-07-28T11:42:51.820Z,4868.00
2018-07-28T11:43:51.771Z,4848.00
2018-07-28T11:44:51.740Z,4832.00
2018-07-28T11:45:51.698Z,4812.00
2018-07-28T11:46:51.648Z,4804.00
2018-07-28T11:47:51.609Z,4776.00
2018-07-28T11:48:51.567Z,4748.00
2018-07-28T11:49:51.519Z,4732.00
2018-07-28T11:50:51.492Z,4700.00
2018-07-28T11:51:51.417Z,4700.00
2018-07-28T11:52:51.380Z,4684.00
2018-07-28T11:53:51.351Z,4680.00
2018-07-28T11:54:51.293Z,4648.00
2018-07-28T11:55:51.257Z,4680.00
2018-07-28T11:56:51.226Z,4680.00
2018-07-28T11:57:51.161Z,4688.00
2018-07-28T11:58:51.142Z,4672.00
2018-07-28T11:59:51.057Z,4664.00
2018-07-28T12:00:51.043Z,4656.00
2018-07-28T12:01:51.054Z,4660.00
2018-07-28T12:02:50.955Z,4648.00
2018-07-28T12:03:50.894Z,4644.00
2018-07-28T12:04:50.857Z,4644.00
2018-07-28T12:05:50.811Z,4636.00
2018-07-28T12:06:50.782Z,4620.00
2018-07-28T12:07:50.735Z,4616.00
2018-07-28T12:08:50.682Z,4612.00
2018-07-28T12:09:50.645Z,4604.00
2018-07-28T12:10:50.592Z,4600.00
2018-07-28T12:11:50.552Z,4592.00
2018-07-28T12:12:50.690Z,4576.00
2018-07-28T12:13:50.464Z,4568.00
2018-07-28T12:14:50.432Z,4552.00
2018-07-28T12:15:50.372Z,4552.00
2018-07-28T12:16:50.340Z,4548.00
2018-07-28T12:17:50.302Z,4536.00
2018-07-28T12:18:50.248Z,4536.00
2018-07-28T12:19:50.206Z,4524.00
2018-07-28T12:20:50.160Z,4508.00
2018-07-28T12:21:50.109Z,4496.00
2018-07-28T12:22:50.065Z,4484.00
2018-07-28T12:23:50.083Z,4472.00
2018-07-28T12:24:49.976Z,4484.00
2018-07-28T12:25:49.917Z,4472.00
2018-07-28T12:26:49.892Z,4464.00
2018-07-28T12:27:49.853Z,4456.00
2018-07-28T12:28:49.816Z,4456.00
2018-07-28T12:29:49.749Z,4460.00
2018-07-28T12:30:49.722Z,4452.00
2018-07-28T12:31:49.674Z,4444.00
2018-07-28T12:32:49.627Z,4440.00
2018-07-28T12:33:49.562Z,4440.00
2018-07-28T12:34:49.553Z,4436.00
2018-07-28T12:35:49.494Z,4432.00
2018-07-28T12:36:49.459Z,4348.00
2018-07-28T12:37:49.392Z,4348.00
2018-07-28T12:38:49.364Z,4360.00
2018-07-28T12:39:49.311Z,4376.00
2018-07-28T12:40:49.301Z,4396.00
2018-07-28T12:41:49.244Z,4408.00
2018-07-28T12:42:49.196Z,4396.00
2018-07-28T12:43:49.136Z,4404.00
2018-07-28T12:44:49.103Z,4380.00
2018-07-28T12:45:49.073Z,4392.00
2018-07-28T12:46:49.019Z,4392.00
2018-07-28T12:47:48.984Z,4404.00
2018-07-28T12:48:48.933Z,4408.00
2018-07-28T12:49:48.894Z,4404.00
2018-07-28T12:50:48.838Z,4396.00
2018-07-28T12:51:48.789Z,4396.00
2018-07-28T12:52:48.757Z,4396.00
2018-07-28T12:53:48.710Z,4396.00
2018-07-28T12:54:48.669Z,4396.00
2018-07-28T12:55:48.629Z,4380.00
2018-07-28T12:56:48.585Z,4352.00